Time;durP1;ratioP1;P1;durP2;ratioP2;P2;SDS_P1;SDS_P2;PMS_P1;PMS_P2;Temp;Humidity;BMP_temperature;BMP_pressure;BME280_temperature;BME280_humidity;BME280_pressure;Samples;Min_cycle;Max_cycle;Signal;HPM_P1;HPM_P2
2023/10/17 00:00:17;;;;;;;0.20;0.20;;;;;;;7.48;48.61;101839.88;5021592;28;20406;-79
2023/10/17 00:02:45;;;;;;;0.15;0.15;;;;;;;7.37;49.27;101846.00;5045849;28;21483;-79
2023/10/17 00:05:14;;;;;;;0.20;0.20;;;;;;;7.41;49.17;101843.94;5029303;28;20386;-78
2023/10/17 00:07:46;;;;;;;0.30;0.30;;;;;;;7.56;48.64;101847.16;5045902;28;20385;-79
2023/10/17 00:10:17;;;;;;;0.22;0.22;;;;;;;7.53;48.88;101844.78;5029185;28;20908;-79
2023/10/17 00:12:50;;;;;;;0.20;0.20;;;;;;;7.47;48.93;101832.91;5013327;28;20402;-79
2023/10/17 00:15:30;;;;;;;0.22;0.22;;;;;;;7.58;48.78;101829.41;5029086;28;20426;-79
2023/10/17 00:18:04;;;;;;;0.40;0.40;;;;;;;7.60;48.87;101833.63;5043960;28;20394;-77
2023/10/17 00:20:39;;;;;;;0.40;0.30;;;;;;;7.66;48.45;101829.63;5030198;28;20414;-78
2023/10/17 00:23:06;;;;;;;0.30;0.30;;;;;;;7.80;48.36;101836.47;5023283;28;20418;-78
2023/10/17 00:25:37;;;;;;;0.30;0.30;;;;;;;7.94;47.58;101822.09;5028959;28;20394;-78
2023/10/17 00:28:03;;;;;;;0.30;0.30;;;;;;;8.01;47.54;101831.22;5030272;28;21493;-79
2023/10/17 00:30:32;;;;;;;0.20;0.20;;;;;;;8.00;47.63;101826.91;5029708;28;20421;-80
2023/10/17 00:32:58;;;;;;;0.40;0.40;;;;;;;7.90;47.97;101829.44;5028573;28;20378;-77
2023/10/17 00:35:26;;;;;;;0.50;0.50;;;;;;;7.87;47.92;101810.38;5029632;28;20390;-80
2023/10/17 00:38:00;;;;;;;0.75;0.70;;;;;;;7.82;48.35;101818.69;5045235;28;20761;-79
2023/10/17 00:40:34;;;;;;;0.30;0.30;;;;;;;7.78;48.41;101812.00;5028526;28;20426;-81
2023/10/17 00:43:05;;;;;;;0.20;0.20;;;;;;;8.00;47.89;101813.72;5030008;28;20440;-81
2023/10/17 00:45:36;;;;;;;0.60;0.60;;;;;;;8.17;47.29;101813.13;5027811;28;20721;-82
2023/10/17 00:48:05;;;;;;;0.32;0.30;;;;;;;8.20;47.17;101812.06;5029232;28;20378;-78
2023/10/17 00:50:31;;;;;;;0.30;0.30;;;;;;;8.14;47.11;101799.34;5029498;28;20755;-80
2023/10/17 00:53:00;;;;;;;0.30;0.30;;;;;;;8.10;47.37;101806.69;5044740;28;20386;-81
2023/10/17 00:55:28;;;;;;;0.20;0.20;;;;;;;7.97;47.41;101812.13;5045173;28;20909;-80
2023/10/17 00:57:56;;;;;;;0.30;0.30;;;;;;;7.84;48.31;101816.75;5028350;28;20824;-81
2023/10/17 01:00:39;;;;;;;0.20;0.20;;;;;;;7.85;47.91;101819.28;5044277;28;20753;-80
2023/10/17 01:03:10;;;;;;;0.20;0.20;;;;;;;7.78;48.37;101812.00;5029150;28;20386;-80
2023/10/17 01:06:13;;;;;;;0.28;0.28;;;;;;;7.56;49.36;101818.13;5029171;28;20389;-82
2023/10/17 01:08:44;;;;;;;0.30;0.30;;;;;;;7.45;49.36;101809.31;5029220;28;20978;-80
2023/10/17 01:11:31;;;;;;;0.30;0.30;;;;;;;7.38;49.07;101796.69;5011996;28;20469;-79
2023/10/17 01:13:57;;;;;;;0.20;0.20;;;;;;;7.49;48.97;101795.84;5029091;28;20436;-81
2023/10/17 01:16:24;;;;;;;0.30;0.30;;;;;;;7.48;48.75;101787.09;5026656;28;20395;-80
2023/10/17 01:18:53;;;;;;;0.20;0.20;;;;;;;7.53;48.95;101803.41;5010355;28;20394;-80
2023/10/17 01:21:24;;;;;;;0.30;0.30;;;;;;;7.45;48.64;101808.44;5010823;28;20401;-79
2023/10/17 01:23:55;;;;;;;0.40;0.40;;;;;;;7.38;48.93;101810.75;5027574;28;20974;-81
2023/10/17 01:26:23;;;;;;;0.30;0.30;;;;;;;7.28;48.70;101808.00;5027266;28;20386;-80
2023/10/17 01:28:52;;;;;;;0.90;0.70;;;;;;;7.22;48.65;101810.25;5027601;28;20410;-81
2023/10/17 01:31:26;;;;;;;0.20;0.20;;;;;;;7.12;48.79;101812.78;5027419;28;20393;-80
2023/10/17 01:33:59;;;;;;;0.20;0.20;;;;;;;6.87;49.54;101817.31;5026854;28;20382;-80
2023/10/17 01:36:25;;;;;;;0.20;0.20;;;;;;;6.87;49.27;101811.22;5026914;28;20398;-81
2023/10/17 01:38:54;;;;;;;0.30;0.30;;;;;;;6.75;49.67;101827.97;5010410;28;20567;-80
2023/10/17 01:41:24;;;;;;;0.35;0.35;;;;;;;6.73;49.20;101822.81;5026663;28;20411;-78
2023/10/17 01:43:50;;;;;;;0.20;0.20;;;;;;;6.79;49.13;101816.25;5029265;28;20488;-80
2023/10/17 01:46:23;;;;;;;0.77;0.77;;;;;;;6.79;49.08;101817.09;5028490;28;20390;-79
2023/10/17 01:48:54;;;;;;;0.45;0.40;;;;;;;6.70;49.63;101823.09;5029437;28;21110;-80
2023/10/17 01:51:21;;;;;;;0.20;0.20;;;;;;;6.62;49.63;101823.66;5029345;28;20465;-79
2023/10/17 01:53:50;;;;;;;0.70;0.68;;;;;;;6.60;49.82;101833.47;5029263;28;20378;-79
2023/10/17 01:56:20;;;;;;;0.90;0.50;;;;;;;6.51;50.12;101828.91;5029545;28;20567;-80
2023/10/17 01:59:06;;;;;;;0.90;0.70;;;;;;;6.56;49.74;101821.50;5028900;28;20394;-80
2023/10/17 02:01:36;;;;;;;0.60;0.40;;;;;;;6.51;50.12;101826.25;5027585;28;20800;-79
2023/10/17 02:04:05;;;;;;;1.00;0.50;;;;;;;6.48;50.26;101815.94;5028530;28;20504;-80
2023/10/17 02:06:34;;;;;;;0.40;0.30;;;;;;;6.47;50.22;101811.66;5027693;28;20394;-79
2023/10/17 02:11:50;;;;;;;0.98;0.57;;;;;;;6.45;50.79;101809.13;5028738;28;20390;-79
2023/10/17 02:14:16;;;;;;;1.13;0.50;;;;;;;6.34;51.13;101814.38;5049553;28;20440;-80
2023/10/17 02:16:43;;;;;;;0.95;0.50;;;;;;;6.44;50.81;101817.97;5049760;28;20774;-80
2023/10/17 02:19:10;;;;;;;1.10;0.50;;;;;;;6.41;51.26;101826.13;5033197;28;20396;-80
2023/10/17 02:21:39;;;;;;;0.90;0.40;;;;;;;6.32;51.27;101824.19;5049324;28;20385;-80
2023/10/17 02:24:10;;;;;;;0.60;0.40;;;;;;;6.28;51.14;101830.63;5049350;28;20450;-79
2023/10/17 02:26:44;;;;;;;0.75;0.40;;;;;;;6.12;51.69;101812.47;5049142;28;20522;-79
2023/10/17 02:29:12;;;;;;;0.93;0.60;;;;;;;6.17;51.71;101810.34;5052568;28;20443;-80
2023/10/17 02:31:43;;;;;;;0.90;0.40;;;;;;;6.10;52.32;101812.63;5065781;28;20495;-81
2023/10/17 02:34:11;;;;;;;1.23;0.60;;;;;;;5.79;52.84;101815.78;5032278;28;20448;-80
2023/10/17 02:36:37;;;;;;;1.77;0.60;;;;;;;5.71;53.16;101824.25;5031966;28;20392;-79
2023/10/17 02:39:04;;;;;;;1.95;0.60;;;;;;;5.93;52.22;101813.81;5048325;28;20397;-80
2023/10/17 02:41:31;;;;;;;1.33;0.50;;;;;;;6.21;51.29;101819.72;5029320;28;20559;-80
2023/10/17 02:43:58;;;;;;;2.20;0.60;;;;;;;6.20;51.57;101815.41;5047719;28;21276;-81
2023/10/17 02:46:28;;;;;;;1.20;0.50;;;;;;;6.20;51.71;101827.72;5028525;28;20410;-80
2023/10/17 02:49:00;;;;;;;1.30;0.50;;;;;;;6.28;51.10;101826.22;5029104;28;20501;-79
2023/10/17 02:53:53;;;;;;;1.40;0.50;;;;;;;6.00;52.02;101818.69;5030701;28;20473;-79
2023/10/17 02:56:19;;;;;;;1.83;0.67;;;;;;;5.90;52.29;101826.34;5029556;28;20762;-80
2023/10/17 02:58:51;;;;;;;1.85;0.93;;;;;;;5.69;53.24;101837.50;5030610;28;20394;-79
2023/10/17 03:01:22;;;;;;;2.30;1.40;;;;;;;5.49;53.64;101812.63;5029650;28;20824;-79
2023/10/17 03:03:51;;;;;;;1.40;0.60;;;;;;;5.78;52.84;101807.06;5029260;28;20481;-79
2023/10/17 03:06:19;;;;;;;1.75;0.57;;;;;;;5.91;52.16;101802.56;5030538;28;20397;-81
2023/10/17 03:08:55;;;;;;;1.23;0.40;;;;;;;5.98;52.38;101807.41;5030329;28;20449;-78
2023/10/17 03:11:37;;;;;;;1.30;0.45;;;;;;;6.05;51.75;101800.72;5030362;28;20391;-80
2023/10/17 03:16:52;;;;;;;2.03;0.60;;;;;;;6.09;51.85;101803.03;5030184;28;20990;-80
2023/10/17 03:19:26;;;;;;;1.52;0.47;;;;;;;6.07;51.84;101814.63;5045776;28;20970;-80
2023/10/17 03:21:54;;;;;;;1.55;0.60;;;;;;;5.96;51.59;101818.06;5013064;28;20395;-80
2023/10/17 03:24:28;;;;;;;1.55;0.50;;;;;;;5.94;51.88;101815.50;5029620;28;20857;-79
2023/10/17 03:27:03;;;;;;;1.42;0.50;;;;;;;5.90;51.89;101821.09;5025578;28;20773;-79
2023/10/17 03:29:34;;;;;;;1.85;0.80;;;;;;;5.92;51.87;101816.56;5029504;28;20398;-81
2023/10/17 03:32:10;;;;;;;1.40;0.47;;;;;;;5.86;51.93;101814.38;5028224;28;20382;-79
2023/10/17 03:34:42;;;;;;;1.75;0.55;;;;;;;5.66;52.54;101824.56;5029746;28;20386;-79
2023/10/17 03:43:12;;;;;;;2.28;0.50;;;;;;;5.13;54.33;101830.06;5007575;28;20428;-79
2023/10/17 03:45:52;;;;;;;3.20;1.17;;;;;;;5.21;54.26;101826.88;5017145;28;20395;-78
2023/10/17 03:48:21;;;;;;;3.03;1.02;;;;;;;5.46;53.65;101841.75;5028286;28;20391;-79
2023/10/17 03:53:15;;;;;;;1.80;0.52;;;;;;;5.51;52.83;101828.28;5027844;28;20398;-78
2023/10/17 03:55:48;;;;;;;1.85;0.60;;;;;;;5.42;53.12;101835.06;5044987;28;20390;-80
2023/10/17 03:58:29;;;;;;;2.25;1.08;;;;;;;5.41;53.18;101836.00;5027900;28;21245;-78
2023/10/17 04:01:00;;;;;;;1.88;0.60;;;;;;;5.28;54.02;101843.06;5043306;28;20394;-78
2023/10/17 04:03:30;;;;;;;2.30;0.70;;;;;;;5.33;53.84;101838.31;5028812;28;20792;-79
2023/10/17 04:06:02;;;;;;;2.47;1.10;;;;;;;5.28;53.88;101843.06;5025802;28;20397;-78
2023/10/17 04:08:34;;;;;;;1.17;0.40;;;;;;;4.93;54.85;101835.81;5026875;28;20451;-79
2023/10/17 04:13:49;;;;;;;2.13;0.98;;;;;;;5.02;54.73;101842.25;5027514;28;20975;-80
2023/10/17 04:16:35;;;;;;;1.48;0.50;;;;;;;4.84;55.21;101849.59;5027070;28;20398;-79
2023/10/17 04:19:20;;;;;;;1.20;0.47;;;;;;;4.88;55.41;101835.28;5028102;28;20460;-79
2023/10/17 04:22:09;;;;;;;1.23;0.40;;;;;;;5.14;54.44;101829.09;5028520;28;20391;-79
2023/10/17 04:24:34;;;;;;;1.50;0.55;;;;;;;5.29;54.47;101826.34;5045395;28;20405;-79
2023/10/17 04:27:19;;;;;;;1.30;0.50;;;;;;;5.53;53.64;101831.66;5029630;28;20401;-82
2023/10/17 04:29:50;;;;;;;1.30;0.57;;;;;;;5.63;53.97;101835.28;5027297;28;20428;-79
2023/10/17 04:32:33;;;;;;;1.67;0.70;;;;;;;5.66;54.14;101834.25;5028251;28;20431;-81
2023/10/17 04:35:02;;;;;;;1.60;0.70;;;;;;;5.66;53.82;101836.88;5028229;28;20494;-80
2023/10/17 04:38:09;;;;;;;13.23;0.93;;;;;;;5.86;53.55;101835.44;5030252;28;20897;-79
2023/10/17 04:40:38;;;;;;;1.98;0.85;;;;;;;5.97;53.17;101842.56;5040444;28;20402;-81
2023/10/17 04:43:44;;;;;;;0.93;0.40;;;;;;;5.88;53.26;101844.06;5030127;28;20416;-79
2023/10/17 04:45:55;;;;;;;1.90;0.60;;;;;;;6.03;52.97;101836.84;5030083;28;20459;-79
2023/10/17 04:48:32;;;;;;;1.77;0.73;;;;;;;6.22;52.41;101842.44;5030148;28;20414;-82
2023/10/17 04:51:12;;;;;;;1.80;0.63;;;;;;;6.34;52.22;101845.97;5027226;28;20393;-81
2023/10/17 04:53:47;;;;;;;1.63;0.60;;;;;;;6.39;52.23;101837.72;5028362;28;20464;-81
2023/10/17 04:56:24;;;;;;;1.83;0.85;;;;;;;6.45;52.20;101843.38;5028453;28;20406;-82
2023/10/17 04:59:02;;;;;;;3.20;1.65;;;;;;;6.54;52.13;101849.75;5028097;28;20472;-80
2023/10/17 05:04:51;;;;;;;4.30;0.98;;;;;;;6.56;52.82;101860.16;5027555;28;20481;-80
2023/10/17 05:07:28;;;;;;;0.95;0.50;;;;;;;6.59;52.61;101855.50;5027967;28;20401;-80
2023/10/17 06:18:40;;;;;;;0.30;0.30;;;;;;;8.09;51.40;101897.44;5032575;28;20410;-79
2023/10/17 06:21:18;;;;;;;0.30;0.30;;;;;;;8.12;51.17;101897.22;5033414;28;20382;-79
2023/10/17 06:32:15;;;;;;;0.50;0.50;;;;;;;8.41;51.41;101896.63;5033207;28;21098;-81
2023/10/17 06:34:48;;;;;;;1.90;1.30;;;;;;;8.35;51.05;101887.38;5033447;28;20406;-81
2023/10/17 06:37:20;;;;;;;0.30;0.30;;;;;;;8.39;50.78;101886.19;5032246;28;20420;-81
2023/10/17 06:39:49;;;;;;;0.13;0.13;;;;;;;8.47;50.67;101888.22;5048515;28;20485;-81
2023/10/17 06:42:29;;;;;;;0.50;0.50;;;;;;;8.57;50.03;101881.22;5032627;28;20785;-81
2023/10/17 06:45:01;;;;;;;0.50;0.50;;;;;;;8.71;49.85;101887.13;5030664;28;20461;-81
2023/10/17 06:47:40;;;;;;;0.20;0.20;;;;;;;8.85;50.03;101884.16;5048789;28;20386;-81
2023/10/17 06:51:15;;;;;;;0.40;0.40;;;;;;;8.97;49.47;101883.13;5032961;28;20780;-80
2023/10/17 06:53:03;;;;;;;0.40;0.40;;;;;;;9.14;49.00;101883.50;5032139;28;20776;-79
2023/10/17 06:55:42;;;;;;;0.40;0.40;;;;;;;9.10;49.37;101888.19;5031164;28;20406;-80
2023/10/17 06:58:09;;;;;;;0.10;0.10;;;;;;;8.93;49.65;101878.22;5031832;28;20378;-79
2023/10/17 07:00:59;;;;;;;0.50;0.50;;;;;;;8.98;49.59;101878.66;5046884;28;20768;-80
2023/10/17 07:03:26;;;;;;;0.10;0.10;;;;;;;9.16;49.32;101874.47;5031701;28;20386;-79
2023/10/17 07:05:55;;;;;;;0.10;0.10;;;;;;;9.13;49.54;101868.59;5047629;28;20387;-80
2023/10/17 07:08:20;;;;;;;2.72;1.67;;;;;;;9.19;49.38;101870.72;5030935;28;20395;-81
2023/10/17 07:14:10;;;;;;;0.30;0.30;;;;;;;9.45;49.14;101868.44;5022747;28;20881;-79
2023/10/17 07:24:36;;;;;;;0.15;0.15;;;;;;;10.03;47.57;101881.00;5031989;28;20390;-81
2023/10/17 07:27:19;;;;;;;0.17;0.17;;;;;;;10.18;47.94;101880.59;5016725;28;20453;-80
2023/10/17 07:32:33;;;;;;;0.10;0.10;;;;;;;10.50;47.04;101870.56;5032462;28;20400;-80
2023/10/17 07:35:01;;;;;;;0.70;0.50;;;;;;;10.60;46.82;101861.75;5029338;28;20764;-78
2023/10/17 07:37:27;;;;;;;0.40;0.20;;;;;;;10.58;47.07;101866.38;5028647;28;20901;-79
2023/10/17 07:42:55;;;;;;;0.38;0.38;;;;;;;10.92;46.49;101866.72;5020428;28;20777;-80
2023/10/17 07:45:22;;;;;;;0.63;0.35;;;;;;;11.02;46.45;101878.16;5012880;28;20398;-80
2023/10/17 07:47:54;;;;;;;0.10;0.10;;;;;;;11.06;46.15;101874.22;5030682;28;20965;-82
2023/10/17 07:50:33;;;;;;;0.35;0.35;;;;;;;11.23;46.38;101877.91;5013683;28;20497;-81
2023/10/17 07:53:06;;;;;;;0.10;0.10;;;;;;;11.32;45.83;101859.44;5013332;28;20995;-80
2023/10/17 07:55:55;;;;;;;0.38;0.35;;;;;;;11.32;45.73;101860.28;5028885;28;20390;-80
2023/10/17 08:01:48;;;;;;;2.17;0.85;;;;;;;11.65;45.25;101860.69;4986178;28;20935;-81
2023/10/17 08:04:24;;;;;;;0.20;0.20;;;;;;;11.57;44.84;101856.09;4956868;28;20470;-81
2023/10/17 08:06:57;;;;;;;0.55;0.55;;;;;;;11.63;44.56;101859.97;5005549;28;20399;-78
2023/10/17 08:09:36;;;;;;;0.20;0.20;;;;;;;11.76;44.36;101868.44;4992120;28;20407;-79
2023/10/17 08:12:12;;;;;;;0.65;0.60;;;;;;;11.92;44.33;101861.66;5008130;28;20392;-78
2023/10/17 08:14:41;;;;;;;0.10;0.10;;;;;;;12.03;44.23;101861.44;4993835;28;20388;-77
2023/10/17 08:17:09;;;;;;;0.50;0.50;;;;;;;12.09;43.70;101865.31;5008230;28;20407;-78
2023/10/17 08:22:25;;;;;;;0.30;0.30;;;;;;;12.04;43.70;101873.72;4969064;28;20446;-79
2023/10/17 08:24:53;;;;;;;2.60;0.70;;;;;;;12.13;43.40;101866.69;5007939;28;20876;-78
2023/10/17 08:29:49;;;;;;;0.10;0.10;;;;;;;12.35;43.17;101852.06;5008613;28;20432;-78
2023/10/17 08:34:48;;;;;;;0.35;0.35;;;;;;;12.44;42.89;101848.50;5008015;28;20411;-77
2023/10/17 08:37:28;;;;;;;0.30;0.30;;;;;;;12.52;42.84;101845.09;5013644;28;20896;-80
2023/10/17 08:39:59;;;;;;;0.20;0.20;;;;;;;12.70;42.64;101853.84;5030328;28;20481;-78
2023/10/17 08:42:31;;;;;;;0.20;0.20;;;;;;;12.81;42.39;101856.25;5030533;28;20402;-79
2023/10/17 08:45:18;;;;;;;0.30;0.30;;;;;;;12.85;41.99;101853.28;5029733;28;20397;-78
2023/10/17 08:47:52;;;;;;;0.10;0.10;;;;;;;13.01;42.04;101853.38;5028314;28;20413;-78
2023/10/17 08:50:17;;;;;;;0.20;0.20;;;;;;;13.04;41.69;101862.88;5045303;28;21003;-78
2023/10/17 08:52:48;;;;;;;0.15;0.15;;;;;;;12.99;41.58;101856.19;5028829;28;20483;-77
2023/10/17 08:55:27;;;;;;;0.63;0.57;;;;;;;13.07;41.31;101867.88;5040972;28;20969;-78
2023/10/17 08:58:10;;;;;;;0.10;0.10;;;;;;;12.82;41.11;101865.91;5031422;28;20406;-78
2023/10/17 09:03:35;;;;;;;0.20;0.20;;;;;;;12.96;41.09;101861.00;5029405;28;20730;-78
2023/10/17 09:06:49;;;;;;;0.30;0.30;;;;;;;12.89;41.04;101851.97;5028031;28;20428;-79
2023/10/17 09:11:34;;;;;;;0.50;0.50;;;;;;;13.30;40.51;101868.16;5029587;28;20395;-78
2023/10/17 09:14:24;;;;;;;0.20;0.20;;;;;;;13.32;39.92;101869.69;5029594;28;20485;-78
2023/10/17 09:19:53;;;;;;;0.10;0.10;;;;;;;13.50;40.37;101863.44;5029152;28;20390;-79
2023/10/17 09:22:21;;;;;;;0.20;0.20;;;;;;;13.55;40.16;101850.47;5030765;28;20521;-78
2023/10/17 09:24:50;;;;;;;0.30;0.30;;;;;;;13.52;39.77;101850.78;5033738;28;20387;-78
2023/10/17 09:27:17;;;;;;;0.50;0.50;;;;;;;13.61;40.24;101849.81;5033318;28;20386;-78
2023/10/17 09:30:44;;;;;;;0.10;0.10;;;;;;;13.80;39.66;101842.56;5032112;28;20916;-77
2023/10/17 09:33:30;;;;;;;0.20;0.20;;;;;;;13.75;39.29;101841.19;5025403;28;20930;-80
2023/10/17 09:35:58;;;;;;;0.10;0.10;;;;;;;13.84;38.95;101825.22;5016068;28;20464;-77
2023/10/17 09:38:25;;;;;;;0.80;0.80;;;;;;;13.76;38.77;101831.38;5033247;28;20382;-79
2023/10/17 09:41:06;;;;;;;0.30;0.30;;;;;;;13.65;38.80;101829.88;5032200;28;20448;-79
2023/10/17 09:43:36;;;;;;;0.20;0.20;;;;;;;13.85;39.01;101816.25;5032984;28;20417;-79
2023/10/17 09:46:02;;;;;;;0.10;0.10;;;;;;;13.99;39.04;101818.28;5033121;28;20444;-79
2023/10/17 09:48:41;;;;;;;0.20;0.20;;;;;;;14.15;39.27;101806.75;5031575;28;20390;-79
2023/10/17 09:51:17;;;;;;;0.30;0.30;;;;;;;14.29;39.16;101815.94;5015276;28;20892;-78
2023/10/17 09:53:44;;;;;;;0.20;0.20;;;;;;;14.39;39.15;101810.44;5050287;28;20492;-77
2023/10/17 09:56:19;;;;;;;0.10;0.10;;;;;;;14.56;38.45;101813.91;5050365;28;20392;-79
2023/10/17 09:58:52;;;;;;;0.50;0.30;;;;;;;14.65;39.11;101812.91;5050417;28;20451;-79
2023/10/17 10:01:22;;;;;;;0.10;0.10;;;;;;;14.64;39.03;101801.41;5050440;28;20389;-80
2023/10/17 10:03:51;;;;;;;0.20;0.20;;;;;;;14.68;38.90;101805.41;5033409;28;20908;-78
2023/10/17 10:06:30;;;;;;;0.70;0.70;;;;;;;14.77;38.71;101795.53;5049921;28;20484;-78
2023/10/17 10:09:29;;;;;;;0.70;0.63;;;;;;;14.91;38.55;101783.34;5049946;28;20416;-78
2023/10/17 10:11:58;;;;;;;0.70;0.50;;;;;;;14.98;38.40;101773.63;5040365;28;20760;-78
2023/10/17 10:14:23;;;;;;;0.40;0.30;;;;;;;15.11;38.12;101767.72;5050146;28;20478;-78
2023/10/17 10:17:00;;;;;;;0.10;0.10;;;;;;;15.18;37.90;101763.34;5050112;28;20385;-77
2023/10/17 10:19:41;;;;;;;0.40;0.40;;;;;;;15.14;37.48;101739.81;5034288;28;20400;-78
2023/10/17 10:22:12;;;;;;;1.00;1.00;;;;;;;14.95;37.54;101741.09;5049822;28;20376;-78
2023/10/17 10:24:42;;;;;;;0.28;0.28;;;;;;;15.00;37.89;101744.06;5041621;28;20931;-78
2023/10/17 10:27:26;;;;;;;0.10;0.10;;;;;;;15.15;37.31;101736.97;5032220;28;20402;-79
2023/10/17 10:30:18;;;;;;;0.20;0.20;;;;;;;15.39;37.31;101738.66;5032722;28;20993;-78
2023/10/17 10:32:52;;;;;;;0.10;0.10;;;;;;;15.51;37.51;101735.63;5030306;28;20383;-78
2023/10/17 10:35:19;;;;;;;0.20;0.20;;;;;;;15.53;37.03;101731.75;5031996;28;20828;-81
2023/10/17 10:37:50;;;;;;;0.30;0.30;;;;;;;15.39;36.90;101719.16;5032228;28;20386;-79
2023/10/17 10:40:22;;;;;;;0.80;0.80;;;;;;;15.46;37.03;101728.13;5031835;28;20765;-78
2023/10/17 10:42:53;;;;;;;0.10;0.10;;;;;;;15.46;36.94;101731.59;5030599;28;20475;-79
2023/10/17 10:45:50;;;;;;;0.60;0.60;;;;;;;15.59;37.04;101730.19;5032078;28;20393;-78
2023/10/17 10:48:18;;;;;;;0.30;0.30;;;;;;;15.74;37.06;101720.44;5012902;28;20390;-78
2023/10/17 10:50:57;;;;;;;0.70;0.50;;;;;;;15.72;36.48;101714.41;5030606;28;20414;-78
2023/10/17 10:53:28;;;;;;;0.60;0.60;;;;;;;15.74;36.33;101714.22;5031942;28;20390;-78
2023/10/17 10:56:15;;;;;;;0.20;0.20;;;;;;;15.74;36.57;101719.56;5030580;28;20800;-78
2023/10/17 10:58:47;;;;;;;0.30;0.30;;;;;;;15.81;36.42;101705.34;5030911;28;20820;-79
2023/10/17 11:01:15;;;;;;;0.68;0.68;;;;;;;15.89;36.30;101701.75;5044556;28;20414;-79
2023/10/17 11:03:48;;;;;;;0.40;0.40;;;;;;;15.93;36.15;101711.06;5035465;28;20378;-77
2023/10/17 11:06:15;;;;;;;0.40;0.40;;;;;;;15.95;36.13;101700.19;5035330;28;20482;-78
2023/10/17 11:08:46;;;;;;;0.40;0.40;;;;;;;16.09;36.14;101696.72;5048231;28;20391;-80
2023/10/17 11:11:14;;;;;;;0.10;0.10;;;;;;;16.19;35.86;101699.97;5030614;28;20939;-79
2023/10/17 11:13:45;;;;;;;0.40;0.40;;;;;;;16.28;35.79;101698.03;5031027;28;20404;-78
2023/10/17 11:16:12;;;;;;;0.40;0.40;;;;;;;16.34;35.93;101694.63;5031444;28;20395;-78
2023/10/17 11:18:45;;;;;;;0.10;0.10;;;;;;;16.48;35.78;101695.63;5013758;28;20393;-78
2023/10/17 11:21:12;;;;;;;0.30;0.30;;;;;;;16.47;35.50;101690.47;5030022;28;20493;-78
2023/10/17 11:23:56;;;;;;;0.40;0.40;;;;;;;16.33;35.37;101687.63;5029690;28;20918;-78
2023/10/17 11:26:25;;;;;;;1.00;1.00;;;;;;;16.36;35.41;101678.38;5029402;28;20390;-77
2023/10/17 11:28:52;;;;;;;0.40;0.40;;;;;;;16.40;35.30;101680.50;5046124;28;20436;-78
2023/10/17 11:31:25;;;;;;;0.35;0.35;;;;;;;16.38;35.28;101677.16;5044992;28;20389;-78
2023/10/17 11:33:59;;;;;;;1.45;1.10;;;;;;;16.39;35.20;101668.13;5030193;28;20461;-79
2023/10/17 11:36:35;;;;;;;0.10;0.10;;;;;;;16.38;35.27;101669.13;5029013;28;20390;-78
2023/10/17 11:39:07;;;;;;;0.10;0.10;;;;;;;16.42;35.42;101661.56;5029479;28;20398;-79
2023/10/17 11:41:49;;;;;;;0.25;0.25;;;;;;;16.48;35.59;101660.84;5031410;28;20453;-78
2023/10/17 11:44:15;;;;;;;0.10;0.10;;;;;;;16.61;35.30;101654.84;5030445;28;20382;-78
2023/10/17 11:46:55;;;;;;;0.40;0.40;;;;;;;16.66;35.17;101652.44;5029828;28;20386;-79
2023/10/17 11:49:28;;;;;;;0.20;0.20;;;;;;;16.58;35.29;101647.16;5030801;28;20402;-77
2023/10/17 11:52:18;;;;;;;0.35;0.35;;;;;;;16.59;35.19;101651.50;5031241;28;20382;-79
2023/10/17 11:55:04;;;;;;;0.80;0.40;;;;;;;16.62;34.72;101643.13;5001417;28;20846;-77
2023/10/17 11:57:32;;;;;;;0.20;0.20;;;;;;;16.61;34.79;101638.78;5031042;28;20774;-78
2023/10/17 12:00:21;;;;;;;0.30;0.30;;;;;;;16.66;34.73;101643.56;5029634;28;20525;-81
2023/10/17 12:02:51;;;;;;;0.90;0.90;;;;;;;16.65;34.96;101637.38;5030231;28;20879;-80
2023/10/17 12:05:20;;;;;;;0.10;0.10;;;;;;;16.77;34.88;101646.59;5029364;28;20383;-79
2023/10/17 12:07:59;;;;;;;0.90;0.90;;;;;;;16.82;34.93;101643.34;5028636;28;20970;-79
2023/10/17 12:10:29;;;;;;;0.32;0.32;;;;;;;16.77;34.94;101641.22;5029498;28;20410;-80
2023/10/17 12:12:59;;;;;;;0.30;0.30;;;;;;;16.78;34.92;101629.50;5020698;28;20406;-79
2023/10/17 12:15:25;;;;;;;0.10;0.10;;;;;;;16.85;34.96;101632.28;5029609;28;20477;-78
2023/10/17 12:17:53;;;;;;;0.10;0.10;;;;;;;16.91;34.77;101634.22;5043513;28;20433;-79
2023/10/17 12:20:25;;;;;;;0.10;0.10;;;;;;;16.84;34.65;101632.50;5023433;28;20441;-78
2023/10/17 12:22:57;;;;;;;0.20;0.20;;;;;;;16.77;34.70;101630.53;5032078;28;20462;-80
2023/10/17 12:25:25;;;;;;;0.50;0.50;;;;;;;16.86;34.77;101633.13;5026639;28;20406;-80
2023/10/17 12:28:13;;;;;;;1.47;0.47;;;;;;;16.65;34.63;101623.97;5010608;28;20380;-80
2023/10/17 12:30:47;;;;;;;0.40;0.40;;;;;;;16.61;34.26;101620.84;5023322;28;20421;-81
2023/10/17 12:33:23;;;;;;;0.20;0.20;;;;;;;16.61;34.43;101612.81;5028011;28;20441;-80
2023/10/17 12:35:59;;;;;;;0.50;0.50;;;;;;;16.54;34.22;101616.44;4996638;28;20399;-81
2023/10/17 12:38:49;;;;;;;0.50;0.50;;;;;;;16.39;34.64;101621.81;5027837;28;20829;-80
2023/10/17 12:41:33;;;;;;;0.80;0.80;;;;;;;16.28;34.33;101616.91;5027238;28;20423;-81
2023/10/17 12:44:10;;;;;;;0.27;0.27;;;;;;;16.31;34.74;101612.03;5011890;28;20930;-82
2023/10/17 12:46:56;;;;;;;0.20;0.20;;;;;;;16.43;34.54;101615.06;5032641;28;20932;-82
2023/10/17 12:49:23;;;;;;;0.17;0.17;;;;;;;16.35;34.41;101605.31;5031655;28;20407;-82
2023/10/17 12:51:49;;;;;;;0.50;0.40;;;;;;;16.33;34.60;101610.03;5031386;28;20473;-81
2023/10/17 12:54:15;;;;;;;0.10;0.10;;;;;;;16.41;34.51;101607.22;5030772;28;20433;-81
2023/10/17 12:56:41;;;;;;;1.70;1.00;;;;;;;16.38;34.28;101598.75;5013887;28;20540;-83
2023/10/17 12:59:15;;;;;;;0.10;0.10;;;;;;;16.45;34.16;101605.00;5031183;28;20534;-81
2023/10/17 13:01:44;;;;;;;0.30;0.30;;;;;;;16.44;34.31;101609.53;4995224;28;20522;-84
2023/10/17 13:04:21;;;;;;;0.22;0.13;;;;;;;16.48;34.33;101598.47;5011783;28;20392;-81
2023/10/17 13:07:11;;;;;;;0.50;0.30;;;;;;;16.55;34.12;101594.03;4996125;28;20406;-81
2023/10/17 13:10:03;;;;;;;0.20;0.20;;;;;;;16.42;34.34;101592.00;4995140;28;20645;-81
2023/10/17 13:12:48;;;;;;;0.10;0.10;;;;;;;16.27;34.40;101591.19;4993842;28;20400;-82
2023/10/17 13:15:17;;;;;;;0.20;0.20;;;;;;;16.28;34.40;101577.63;5016588;28;20392;-85
2023/10/17 13:17:52;;;;;;;0.20;0.20;;;;;;;16.39;34.48;101579.00;4998129;28;20810;-80
2023/10/17 13:20:33;;;;;;;0.20;0.20;;;;;;;16.55;34.22;101578.78;4998005;28;21006;-81
2023/10/17 13:23:03;;;;;;;0.10;0.10;;;;;;;16.67;34.16;101576.44;5012686;28;20435;-82
2023/10/17 13:25:38;;;;;;;0.43;0.43;;;;;;;16.61;34.15;101569.16;4997320;28;20916;-84
2023/10/17 13:28:15;;;;;;;0.15;0.15;;;;;;;16.60;34.15;101572.84;5013539;28;20919;-83
2023/10/17 13:30:42;;;;;;;0.13;0.13;;;;;;;16.51;34.06;101572.16;5012518;28;20408;-82
2023/10/17 13:33:13;;;;;;;0.10;0.10;;;;;;;16.57;34.14;101575.94;4998080;28;20393;-82
2023/10/17 13:35:42;;;;;;;0.10;0.10;;;;;;;16.63;34.09;101575.16;5011263;28;20401;-82
2023/10/17 13:38:17;;;;;;;0.00;0.00;;;;;;;16.63;34.15;101578.66;4995319;28;20483;-81
2023/10/17 13:40:43;;;;;;;0.10;0.10;;;;;;;16.76;34.06;101575.31;5008848;28;20400;-81
2023/10/17 13:43:13;;;;;;;0.10;0.10;;;;;;;16.86;34.11;101572.34;5003844;28;20420;-82
2023/10/17 13:45:42;;;;;;;2.20;0.30;;;;;;;16.85;34.08;101577.91;5007899;28;20400;-81
2023/10/17 13:48:09;;;;;;;0.10;0.10;;;;;;;16.89;34.00;101563.09;5008157;28;20907;-83
2023/10/17 13:50:36;;;;;;;0.10;0.10;;;;;;;16.93;33.92;101567.06;5009114;28;20412;-83
2023/10/17 13:53:16;;;;;;;0.20;0.20;;;;;;;16.88;33.92;101572.16;5044810;28;20841;-81
2023/10/17 13:55:48;;;;;;;0.60;0.60;;;;;;;16.85;33.95;101575.22;5024714;28;20399;-80
2023/10/17 13:58:16;;;;;;;0.20;0.20;;;;;;;16.84;33.86;101574.41;5033729;28;20390;-81
2023/10/17 14:00:43;;;;;;;0.10;0.10;;;;;;;16.72;33.81;101567.84;5044946;28;20422;-83
2023/10/17 14:03:13;;;;;;;0.10;0.10;;;;;;;16.69;33.76;101571.75;5040628;28;20766;-81
2023/10/17 14:05:47;;;;;;;0.10;0.10;;;;;;;16.79;33.75;101574.94;5029144;28;20391;-79
2023/10/17 14:08:14;;;;;;;1.10;1.10;;;;;;;16.75;33.73;101580.88;5031137;28;20413;-80
2023/10/17 14:10:48;;;;;;;0.20;0.20;;;;;;;16.61;33.65;101571.84;5032750;28;20556;-83
2023/10/17 14:13:16;;;;;;;0.38;0.38;;;;;;;16.50;33.91;101580.38;4994328;28;20416;-80